createdAt,value
2016-12-29T00:00:23.042Z,0
2016-12-29T00:01:33.790Z,0
2016-12-29T00:02:43.730Z,0
2016-12-29T00:03:54.509Z,0
2016-12-29T00:05:05.257Z,0
2016-12-29T00:06:15.633Z,0
2016-12-29T00:07:25.994Z,0
2016-12-29T00:08:36.727Z,0
2016-12-29T00:09:47.089Z,0
2016-12-29T00:10:57.440Z,0
2016-12-29T00:12:07.401Z,0
2016-12-29T00:13:17.738Z,0
2016-12-29T00:14:28.071Z,0
2016-12-29T00:15:38.407Z,0
2016-12-29T00:16:48.749Z,0
2016-12-29T00:17:58.702Z,0
2016-12-29T00:19:09.468Z,0
2016-12-29T00:20:19.431Z,0
2016-12-29T00:21:29.780Z,0
2016-12-29T00:22:40.127Z,0
2016-12-29T00:23:50.473Z,0
2016-12-29T00:25:00.807Z,0
2016-12-29T00:26:11.548Z,0
2016-12-29T00:27:21.489Z,0
2016-12-29T00:28:32.216Z,0
2016-12-29T00:29:42.986Z,0
2016-12-29T00:30:53.725Z,0
2016-12-29T00:32:04.465Z,0
2016-12-29T00:33:14.803Z,0
2016-12-29T00:34:25.548Z,0
2016-12-29T00:35:36.296Z,0
2016-12-29T00:36:47.024Z,0
2016-12-29T00:37:57.383Z,0
2016-12-29T00:39:07.721Z,0
2016-12-29T00:40:18.063Z,0
2016-12-29T00:41:28.814Z,0
2016-12-29T00:42:39.546Z,0
2016-12-29T00:43:50.286Z,0
2016-12-29T00:45:00.257Z,0
2016-12-29T00:46:09.822Z,0
2016-12-29T00:47:20.159Z,0
2016-12-29T00:48:30.141Z,0
2016-12-29T00:49:41.136Z,0
2016-12-29T00:50:51.874Z,0
2016-12-29T00:52:02.219Z,0
2016-12-29T00:53:13.187Z,0
2016-12-29T00:54:23.513Z,0
2016-12-29T00:55:33.879Z,0
2016-12-29T00:56:44.221Z,0
2016-12-29T00:57:54.960Z,0
2016-12-29T00:59:05.696Z,0
2016-12-29T01:00:16.464Z,0
2016-12-29T01:01:26.427Z,0
2016-12-29T01:02:37.161Z,0
2016-12-29T01:03:47.510Z,0
2016-12-29T01:04:57.859Z,0
2016-12-29T01:06:08.594Z,0
2016-12-29T01:07:19.326Z,0
2016-12-29T01:08:29.274Z,0
2016-12-29T01:09:39.245Z,0
2016-12-29T01:10:50.001Z,0
2016-12-29T01:12:00.349Z,0
2016-12-29T01:13:10.706Z,0
2016-12-29T01:14:21.456Z,0
2016-12-29T01:15:31.423Z,0
2016-12-29T01:16:42.165Z,0
2016-12-29T01:17:52.504Z,0
2016-12-29T01:19:02.853Z,0
2016-12-29T01:20:13.598Z,0
2016-12-29T01:21:23.949Z,0
2016-12-29T01:22:34.690Z,0
2016-12-29T01:23:45.031Z,0
2016-12-29T01:24:54.981Z,0
2016-12-29T01:26:05.358Z,0
2016-12-29T01:27:15.320Z,0
2016-12-29T01:28:25.667Z,0
2016-12-29T01:29:36.404Z,0
2016-12-29T01:30:46.346Z,0
2016-12-29T01:31:56.298Z,0
2016-12-29T01:33:07.031Z,0
2016-12-29T01:34:17.375Z,0
2016-12-29T01:35:27.733Z,0
2016-12-29T01:36:38.079Z,0
2016-12-29T01:37:48.850Z,0
2016-12-29T01:38:59.192Z,0
2016-12-29T01:40:09.594Z,0
2016-12-29T01:41:19.541Z,0
2016-12-29T01:42:30.268Z,0
2016-12-29T01:43:40.224Z,0
2016-12-29T01:44:50.587Z,0
2016-12-29T01:46:00.924Z,0
2016-12-29T01:47:11.680Z,0
2016-12-29T01:48:22.423Z,0
2016-12-29T01:49:32.380Z,0
2016-12-29T01:50:42.730Z,0
2016-12-29T01:51:53.476Z,0
2016-12-29T01:53:04.224Z,0
2016-12-29T01:54:14.195Z,0
2016-12-29T01:55:24.932Z,0
2016-12-29T01:56:35.668Z,0
2016-12-29T01:57:46.405Z,0
2016-12-29T01:58:57.144Z,0
2016-12-29T02:00:07.873Z,0
2016-12-29T02:01:18.225Z,0
2016-12-29T02:02:28.958Z,0
2016-12-29T02:03:39.703Z,0
2016-12-29T02:04:50.456Z,0
2016-12-29T02:06:00.798Z,0
2016-12-29T02:07:11.543Z,0
2016-12-29T02:08:22.266Z,0
2016-12-29T02:09:32.213Z,0
2016-12-29T02:10:42.936Z,0
2016-12-29T02:11:53.679Z,0
2016-12-29T02:13:04.036Z,0
2016-12-29T02:14:13.993Z,0
2016-12-29T02:15:24.732Z,0
2016-12-29T02:16:35.464Z,0
2016-12-29T02:17:45.444Z,0
2016-12-29T02:18:55.798Z,0
2016-12-29T02:20:06.146Z,0
2016-12-29T02:21:16.524Z,0
2016-12-29T02:22:26.885Z,0
2016-12-29T02:23:37.610Z,0
2016-12-29T02:24:48.344Z,0
2016-12-29T02:25:58.686Z,0
2016-12-29T02:27:09.424Z,0
2016-12-29T02:28:20.155Z,0
2016-12-29T02:29:30.877Z,0
2016-12-29T02:30:40.823Z,0
2016-12-29T02:31:51.170Z,0
2016-12-29T02:33:01.905Z,0
2016-12-29T02:34:11.459Z,0
2016-12-29T02:35:22.190Z,0
2016-12-29T02:36:32.142Z,0
2016-12-29T02:37:42.487Z,0
2016-12-29T02:38:52.838Z,0
2016-12-29T02:40:03.182Z,0
2016-12-29T02:41:13.907Z,0
2016-12-29T02:42:24.249Z,0
2016-12-29T02:43:34.974Z,0
2016-12-29T02:44:45.735Z,0
2016-12-29T02:45:56.105Z,0
2016-12-29T02:47:06.062Z,0
2016-12-29T02:48:15.610Z,0
2016-12-29T02:49:25.949Z,0
2016-12-29T02:50:36.291Z,0
2016-12-29T02:51:45.844Z,0
2016-12-29T02:52:56.274Z,0
2016-12-29T02:54:07.007Z,0
2016-12-29T02:55:17.753Z,0
2016-12-29T02:56:27.316Z,0
2016-12-29T02:57:38.048Z,0
2016-12-29T02:58:48.009Z,0
2016-12-29T02:59:58.749Z,0
2016-12-29T03:01:09.492Z,0
2016-12-29T03:33:10.290Z,0
2016-12-29T03:34:21.015Z,0
2016-12-29T03:35:31.379Z,0
2016-12-29T03:36:41.708Z,0
2016-12-29T03:37:52.050Z,0
2016-12-29T03:39:02.403Z,0
2016-12-29T03:40:13.159Z,0
2016-12-29T03:41:23.882Z,0
2016-12-29T03:42:34.621Z,0
2016-12-29T03:43:44.171Z,0
2016-12-29T03:44:54.113Z,0
2016-12-29T03:46:04.843Z,0
2016-12-29T03:47:14.014Z,0
2016-12-29T03:48:24.337Z,0
2016-12-29T03:49:34.670Z,0
2016-12-29T03:50:45.085Z,0
2016-12-29T03:51:55.422Z,0
2016-12-29T03:53:05.768Z,0
2016-12-29T03:54:15.750Z,0
2016-12-29T03:55:26.482Z,0
2016-12-29T03:56:36.454Z,0
2016-12-29T03:57:47.204Z,0
2016-12-29T03:58:57.939Z,0
2016-12-29T04:00:08.682Z,0
2016-12-29T04:01:18.630Z,0
2016-12-29T04:02:29.366Z,0
2016-12-29T04:03:38.907Z,0
2016-12-29T04:04:49.650Z,0
2016-12-29T04:06:00.382Z,0
2016-12-29T04:07:10.724Z,0
2016-12-29T04:08:21.444Z,0
2016-12-29T04:09:31.784Z,0
2016-12-29T04:10:42.115Z,0
2016-12-29T04:11:52.459Z,0
2016-12-29T04:13:03.201Z,0
2016-12-29T04:14:13.534Z,0
2016-12-29T04:15:23.874Z,0
2016-12-29T04:16:34.215Z,0
2016-12-29T04:17:44.548Z,0
2016-12-29T04:18:54.894Z,0
2016-12-29T04:20:05.656Z,0
2016-12-29T04:21:15.598Z,0
2016-12-29T04:22:26.350Z,0
2016-12-29T04:23:36.686Z,0
2016-12-29T04:24:47.040Z,0
2016-12-29T04:25:57.785Z,0
2016-12-29T04:27:08.521Z,0
2016-12-29T04:28:19.245Z,0
2016-12-29T04:29:29.977Z,0
2016-12-29T04:30:40.744Z,0
2016-12-29T04:31:50.700Z,0
2016-12-29T04:33:01.439Z,0
2016-12-29T04:34:12.180Z,0
2016-12-29T04:35:22.924Z,0
2016-12-29T04:36:33.281Z,0
2016-12-29T04:37:43.228Z,0
2016-12-29T04:38:53.574Z,0
2016-12-29T04:40:03.906Z,0
2016-12-29T04:41:14.287Z,0
2016-12-29T04:42:25.031Z,0
2016-12-29T04:43:35.791Z,0
2016-12-29T04:44:46.173Z,0
2016-12-29T04:45:56.519Z,0
2016-12-29T04:47:07.266Z,0
2016-12-29T04:48:17.998Z,0
2016-12-29T04:49:27.932Z,0
2016-12-29T04:50:38.667Z,0
2016-12-29T04:51:49.408Z,0
2016-12-29T04:53:00.155Z,0
2016-12-29T04:54:10.893Z,0
2016-12-29T04:55:21.628Z,0
2016-12-29T04:56:32.367Z,0
2016-12-29T04:57:42.317Z,0
2016-12-29T04:58:53.063Z,0
2016-12-29T05:00:03.400Z,0
2016-12-29T05:01:14.142Z,0
2016-12-29T05:02:24.105Z,0
2016-12-29T05:03:34.436Z,0
2016-12-29T05:04:44.782Z,0
2016-12-29T05:05:55.120Z,0
2016-12-29T05:07:05.857Z,0
2016-12-29T05:08:15.818Z,0
2016-12-29T05:09:26.159Z,0
2016-12-29T05:10:36.906Z,0
2016-12-29T05:11:47.262Z,0
2016-12-29T05:12:57.999Z,0
2016-12-29T05:14:08.340Z,0
2016-12-29T05:15:18.676Z,0
2016-12-29T05:16:29.417Z,0
2016-12-29T05:17:40.137Z,0
2016-12-29T05:18:50.915Z,0
2016-12-29T05:20:00.865Z,0
2016-12-29T05:21:10.821Z,0
2016-12-29T05:22:21.169Z,0
2016-12-29T05:23:31.519Z,0
2016-12-29T05:24:42.261Z,0
2016-12-29T05:25:52.227Z,0
2016-12-29T05:27:02.969Z,0
2016-12-29T05:28:12.908Z,0
2016-12-29T05:29:23.253Z,0
2016-12-29T05:30:33.985Z,0
2016-12-29T05:31:44.361Z,0
2016-12-29T05:32:55.099Z,0
2016-12-29T05:34:05.444Z,0
2016-12-29T05:35:15.801Z,0
2016-12-29T05:36:25.749Z,0
2016-12-29T05:37:36.480Z,0
2016-12-29T05:38:47.233Z,0
2016-12-29T05:39:57.965Z,0
2016-12-29T05:41:08.345Z,0
2016-12-29T05:42:19.083Z,0
2016-12-29T05:43:29.413Z,0
2016-12-29T05:44:39.801Z,0
2016-12-29T05:45:50.533Z,0
2016-12-29T05:47:01.263Z,0
2016-12-29T05:48:11.611Z,0
2016-12-29T05:49:21.164Z,0
2016-12-29T05:50:30.714Z,0
2016-12-29T05:51:40.665Z,0
2016-12-29T05:52:51.003Z,0
2016-12-29T05:54:01.735Z,0
2016-12-29T05:55:12.475Z,0
2016-12-29T05:56:23.212Z,0
2016-12-29T05:57:33.159Z,0
2016-12-29T05:58:43.505Z,0
2016-12-29T05:59:53.853Z,0
2016-12-29T06:01:04.586Z,0
2016-12-29T06:02:15.315Z,0
2016-12-29T06:03:26.059Z,0
2016-12-29T06:04:36.800Z,0
2016-12-29T06:05:47.155Z,0
2016-12-29T06:06:57.896Z,4
2016-12-29T06:08:08.663Z,4
2016-12-29T06:09:19.402Z,0
2016-12-29T06:10:30.124Z,0
2016-12-29T06:11:40.857Z,4
2016-12-29T06:12:51.591Z,4
2016-12-29T06:14:00.780Z,0
2016-12-29T06:15:11.516Z,4
2016-12-29T06:16:21.861Z,4
2016-12-29T06:17:32.202Z,4
2016-12-29T06:18:42.151Z,8
2016-12-29T06:19:52.101Z,8
2016-12-29T06:21:02.454Z,8
2016-12-29T06:22:13.189Z,12
2016-12-29T06:23:23.566Z,12
2016-12-29T06:24:33.894Z,16
2016-12-29T06:25:44.236Z,16
2016-12-29T06:26:54.195Z,20
2016-12-29T06:28:04.148Z,24
2016-12-29T06:29:14.499Z,28
2016-12-29T06:30:25.238Z,32
2016-12-29T06:31:35.184Z,40
2016-12-29T06:32:45.934Z,44
2016-12-29T06:33:56.677Z,52
2016-12-29T06:35:06.227Z,64
2016-12-29T06:36:16.965Z,68
2016-12-29T06:37:27.346Z,84
2016-12-29T06:38:37.292Z,92
2016-12-29T06:39:48.040Z,104
2016-12-29T06:40:58.767Z,120
2016-12-29T06:42:08.728Z,136
2016-12-29T06:43:18.689Z,152
2016-12-29T06:44:29.047Z,168
2016-12-29T06:45:39.793Z,184
2016-12-29T06:46:50.564Z,204
2016-12-29T06:48:01.302Z,224
2016-12-29T06:49:12.035Z,244
2016-12-29T06:50:22.768Z,272
2016-12-29T06:51:33.498Z,296
2016-12-29T06:52:43.448Z,316
2016-12-29T06:53:53.010Z,344
2016-12-29T06:55:03.359Z,372
2016-12-29T06:56:14.098Z,400
2016-12-29T06:57:24.437Z,432
2016-12-29T06:58:35.175Z,464
2016-12-29T06:59:45.516Z,500
2016-12-29T07:00:55.875Z,536
2016-12-29T07:02:06.209Z,576
2016-12-29T07:03:16.978Z,616
2016-12-29T07:04:27.335Z,652
2016-12-29T07:05:37.683Z,692
2016-12-29T07:06:48.430Z,732
2016-12-29T07:07:58.766Z,772
2016-12-29T07:09:09.504Z,812
2016-12-29T07:10:20.269Z,856
2016-12-29T07:11:31.007Z,900
2016-12-29T07:12:41.754Z,944
2016-12-29T07:13:52.506Z,984
2016-12-29T07:15:03.256Z,1036
2016-12-29T07:16:13.593Z,1084
2016-12-29T07:17:23.937Z,1132
2016-12-29T07:18:34.291Z,1176
2016-12-29T07:19:44.240Z,1224
2016-12-29T07:20:54.209Z,1272
2016-12-29T07:22:03.776Z,1328
2016-12-29T07:23:13.327Z,1372
2016-12-29T07:24:23.675Z,1424
2016-12-29T07:25:34.028Z,1476
2016-12-29T07:26:43.988Z,1524
2016-12-29T07:27:54.320Z,1584
2016-12-29T07:29:04.281Z,1640
2016-12-29T07:30:14.639Z,1700
2016-12-29T07:31:25.381Z,1776
2016-12-29T07:32:35.739Z,1896
2016-12-29T07:33:46.488Z,1932
2016-12-29T07:34:56.830Z,1912
2016-12-29T07:36:07.182Z,1916
2016-12-29T07:37:17.919Z,1948
2016-12-29T07:38:28.259Z,1992
2016-12-29T07:39:39.001Z,2032
2016-12-29T07:40:48.959Z,2068
2016-12-29T07:41:59.696Z,2100
2016-12-29T07:43:10.427Z,2164
2016-12-29T07:44:21.173Z,2220
2016-12-29T07:45:31.521Z,2264
2016-12-29T07:46:41.871Z,2304
2016-12-29T07:47:52.225Z,2352
2016-12-29T07:49:02.972Z,2384
2016-12-29T07:50:13.711Z,2420
2016-12-29T07:51:24.463Z,2460
2016-12-29T07:52:34.841Z,2492
2016-12-29T07:53:45.578Z,2532
2016-12-29T07:54:56.305Z,2576
2016-12-29T07:56:07.051Z,2608
2016-12-29T07:57:16.617Z,2644
2016-12-29T07:58:26.967Z,2680
2016-12-29T07:59:37.309Z,2716
2016-12-29T08:00:48.041Z,2756
2016-12-29T08:01:57.989Z,2792
2016-12-29T08:03:08.749Z,2832
2016-12-29T08:04:19.497Z,2872
2016-12-29T08:05:30.245Z,2892
2016-12-29T08:06:40.200Z,2932
2016-12-29T08:07:50.964Z,2964
2016-12-29T08:09:01.704Z,2992
2016-12-29T08:10:12.041Z,3024
2016-12-29T08:11:21.205Z,3052
2016-12-29T08:12:31.940Z,3084
2016-12-29T08:13:41.900Z,3120
2016-12-29T08:14:52.653Z,3148
2016-12-29T08:16:03.434Z,3188
2016-12-29T08:17:14.172Z,3232
2016-12-29T08:18:24.927Z,3260
2016-12-29T08:19:34.896Z,3304
2016-12-29T08:20:45.636Z,3328
2016-12-29T08:21:55.998Z,3356
2016-12-29T08:23:06.340Z,3380
2016-12-29T08:24:17.079Z,3436
2016-12-29T08:25:27.854Z,3476
2016-12-29T08:26:38.192Z,3496
2016-12-29T08:27:48.537Z,3528
2016-12-29T08:28:59.293Z,3564
2016-12-29T08:30:09.647Z,3608
2016-12-29T08:31:20.394Z,3640
2016-12-29T08:32:30.354Z,3676
2016-12-29T08:33:40.700Z,3692
2016-12-29T08:34:51.055Z,3744
2016-12-29T08:36:01.798Z,3776
2016-12-29T08:37:12.145Z,3816
2016-12-29T08:38:22.506Z,3832
2016-12-29T08:39:32.848Z,3880
2016-12-29T08:40:43.206Z,3916
2016-12-29T08:41:53.556Z,3960
2016-12-29T08:43:04.303Z,3996
2016-12-29T08:44:14.648Z,4024
2016-12-29T08:45:25.404Z,4060
2016-12-29T08:46:36.148Z,4088
2016-12-29T08:47:46.510Z,4112
2016-12-29T08:48:57.083Z,4136
2016-12-29T08:50:07.841Z,4152
2016-12-29T08:51:18.181Z,4180
2016-12-29T08:52:27.744Z,4204
2016-12-29T08:53:38.482Z,4232
2016-12-29T08:54:48.830Z,4268
2016-12-29T08:55:59.589Z,4288
2016-12-29T08:57:09.933Z,4320
2016-12-29T08:58:20.680Z,4340
2016-12-29T08:59:31.033Z,4372
2016-12-29T09:00:41.784Z,4396
2016-12-29T09:01:52.522Z,4408
2016-12-29T09:03:02.492Z,4432
2016-12-29T09:04:12.841Z,4468
2016-12-29T09:05:23.575Z,4516
2016-12-29T09:06:34.318Z,4528
2016-12-29T09:07:44.675Z,4556
2016-12-29T09:08:54.656Z,4596
2016-12-29T09:10:05.005Z,4644
2016-12-29T09:11:15.355Z,4664
2016-12-29T09:12:26.122Z,4696
2016-12-29T09:13:36.492Z,4736
2016-12-29T09:14:47.210Z,4768
2016-12-29T09:15:57.166Z,4804
2016-12-29T09:17:07.509Z,4836
2016-12-29T09:18:17.865Z,4864
2016-12-29T09:19:28.631Z,4904
2016-12-29T09:20:39.419Z,4944
2016-12-29T09:21:50.151Z,4988
2016-12-29T09:23:00.906Z,5020
2016-12-29T09:24:11.254Z,5060
2016-12-29T09:25:21.620Z,5092
2016-12-29T09:26:31.976Z,5132
2016-12-29T09:27:41.964Z,5152
2016-12-29T09:28:52.715Z,5208
2016-12-29T09:30:03.059Z,5232
2016-12-29T09:31:13.804Z,5256
2016-12-29T09:32:24.552Z,5276
2016-12-29T09:33:35.297Z,5288
2016-12-29T09:34:46.043Z,5304
2016-12-29T09:35:55.995Z,5316
2016-12-29T09:37:06.733Z,5340
2016-12-29T09:38:17.080Z,5380
2016-12-29T09:39:27.442Z,5424
2016-12-29T09:40:38.184Z,5464
2016-12-29T09:41:48.935Z,5512
2016-12-29T09:42:59.285Z,5576
2016-12-29T09:44:09.687Z,5624
2016-12-29T09:45:20.631Z,5668
2016-12-29T09:46:31.567Z,5688
2016-12-29T09:47:42.328Z,5724
2016-12-29T09:48:52.305Z,5756
2016-12-29T09:50:03.033Z,6060
2016-12-29T09:51:13.778Z,6720
2016-12-29T09:52:24.510Z,9940
2016-12-29T09:53:34.871Z,12104
2016-12-29T09:54:44.431Z,12160
2016-12-29T09:55:55.165Z,12264
2016-12-29T09:57:05.946Z,13364
2016-12-29T09:58:16.303Z,12340
2016-12-29T09:59:26.649Z,9000
2016-12-29T10:00:37.410Z,6156
2016-12-29T10:01:48.157Z,5956
2016-12-29T10:02:58.895Z,5988
2016-12-29T10:04:09.241Z,5964
2016-12-29T10:05:19.988Z,5976
2016-12-29T10:06:30.339Z,6008
2016-12-29T10:07:41.081Z,6028
2016-12-29T10:08:51.804Z,6020
2016-12-29T10:10:02.998Z,6032
2016-12-29T10:11:13.394Z,6040
2016-12-29T10:12:24.133Z,6080
2016-12-29T10:13:34.489Z,6104
2016-12-29T10:14:45.237Z,6108
2016-12-29T10:15:55.594Z,6108
2016-12-29T10:17:06.351Z,6112
2016-12-29T10:18:16.706Z,6100
2016-12-29T10:19:27.047Z,6172
2016-12-29T10:20:36.995Z,6164
2016-12-29T10:21:47.338Z,6136
2016-12-29T10:22:58.073Z,6140
2016-12-29T10:24:08.819Z,6132
2016-12-29T10:25:19.155Z,6188
2016-12-29T10:26:30.173Z,6180
2016-12-29T10:27:40.580Z,6212
2016-12-29T10:28:51.324Z,6216
2016-12-29T10:30:02.290Z,6248
2016-12-29T10:31:12.725Z,6272
2016-12-29T10:32:23.475Z,6252
2016-12-29T10:33:34.215Z,6260
2016-12-29T10:34:44.166Z,6284
2016-12-29T10:35:54.933Z,6288
2016-12-29T10:37:05.860Z,6308
2016-12-29T10:38:16.602Z,6296
2016-12-29T10:39:26.553Z,6292
2016-12-29T10:40:37.291Z,6328
2016-12-29T10:41:47.897Z,6320
2016-12-29T10:42:58.647Z,6368
2016-12-29T10:44:09.390Z,6376
2016-12-29T10:45:19.346Z,6400
2016-12-29T10:46:29.680Z,6428
2016-12-29T10:47:40.909Z,6456
2016-12-29T10:48:51.476Z,6484
2016-12-29T10:50:02.904Z,6488
2016-12-29T10:51:13.646Z,6512
2016-12-29T10:52:24.020Z,6512
2016-12-29T10:53:35.042Z,6512
2016-12-29T10:54:45.790Z,6560
2016-12-29T10:55:56.923Z,6556
2016-12-29T10:57:06.878Z,6600
2016-12-29T10:58:17.250Z,6640
2016-12-29T10:59:27.613Z,6628
2016-12-29T11:00:37.569Z,6612
2016-12-29T11:01:48.314Z,6572
2016-12-29T11:02:58.886Z,6632
2016-12-29T11:04:09.475Z,6656
2016-12-29T11:05:20.452Z,6696
2016-12-29T11:06:31.053Z,6708
2016-12-29T11:07:41.809Z,6776
2016-12-29T11:08:52.826Z,6812
2016-12-29T11:10:03.176Z,6808
2016-12-29T11:11:13.174Z,6792
2016-12-29T11:12:23.911Z,6764
2016-12-29T11:13:35.104Z,6840
2016-12-29T11:14:46.092Z,6896
2016-12-29T11:15:56.911Z,6884
2016-12-29T11:17:07.522Z,6924
2016-12-29T11:18:19.308Z,6900
2016-12-29T11:19:30.057Z,6936
2016-12-29T11:20:41.038Z,6936
2016-12-29T11:21:51.634Z,6988
2016-12-29T11:23:02.788Z,6956
2016-12-29T11:24:17.414Z,7008
2016-12-29T11:25:29.425Z,7060
2016-12-29T11:26:39.773Z,7080
2016-12-29T11:27:50.526Z,7068
2016-12-29T11:29:00.489Z,7124
2016-12-29T11:30:10.866Z,7084
2016-12-29T11:31:21.597Z,7120
2016-12-29T11:32:32.349Z,7220
2016-12-29T11:33:42.316Z,7200
2016-12-29T11:34:53.059Z,7184
2016-12-29T11:36:03.819Z,7228
2016-12-29T11:37:14.586Z,7212
2016-12-29T11:38:24.935Z,7228
2016-12-29T11:39:35.695Z,7224
2016-12-29T11:40:46.442Z,7252
2016-12-29T11:41:56.389Z,7220
2016-12-29T11:43:06.736Z,7240
2016-12-29T11:44:17.119Z,7176
2016-12-29T11:45:27.853Z,7200
2016-12-29T11:46:38.230Z,7188
2016-12-29T11:47:48.182Z,7220
2016-12-29T11:48:58.541Z,7176
2016-12-29T11:50:09.303Z,7260
2016-12-29T11:51:18.871Z,7192
2016-12-29T11:52:29.441Z,7132
2016-12-29T11:53:40.371Z,7128
2016-12-29T11:54:50.726Z,7104
2016-12-29T11:56:01.113Z,7172
2016-12-29T11:57:11.460Z,7160
2016-12-29T11:58:22.228Z,7188
2016-12-29T11:59:32.183Z,7168
2016-12-29T12:00:42.155Z,7124
2016-12-29T12:01:52.901Z,7144
2016-12-29T12:03:03.249Z,7156
2016-12-29T12:04:13.984Z,7168
2016-12-29T12:05:24.731Z,7140
2016-12-29T12:06:34.683Z,7120
2016-12-29T12:07:45.481Z,7148
2016-12-29T12:08:56.225Z,7100
2016-12-29T12:10:06.999Z,7084
2016-12-29T12:11:17.349Z,7008
2016-12-29T12:12:28.086Z,6968
2016-12-29T12:13:38.820Z,6976
2016-12-29T12:14:49.561Z,7080
2016-12-29T12:15:59.917Z,6992
2016-12-29T12:17:10.269Z,7044
2016-12-29T12:18:20.628Z,7076
2016-12-29T12:19:31.230Z,7104
2016-12-29T12:20:41.973Z,7124
2016-12-29T12:21:51.926Z,7020
2016-12-29T12:23:02.673Z,9800
2016-12-29T12:24:12.637Z,14136
2016-12-29T12:25:22.609Z,15552
2016-12-29T12:26:32.967Z,15424
2016-12-29T12:27:42.924Z,14368
2016-12-29T12:28:53.281Z,15168
2016-12-29T12:30:03.243Z,14432
2016-12-29T12:31:12.808Z,15712
2016-12-29T12:32:23.570Z,13508
2016-12-29T12:33:34.317Z,8224
2016-12-29T12:34:45.062Z,6964
2016-12-29T12:35:55.024Z,6800
2016-12-29T12:37:05.781Z,7040
2016-12-29T12:38:16.528Z,7236
2016-12-29T12:39:27.275Z,8808
2016-12-29T12:40:37.217Z,8424
2016-12-29T12:41:47.557Z,7912
2016-12-29T12:42:57.920Z,7392
2016-12-29T12:44:08.281Z,3440
2016-12-29T12:45:18.227Z,6264
2016-12-29T12:46:28.979Z,6436
2016-12-29T12:47:39.740Z,6196
2016-12-29T12:48:50.493Z,6204
2016-12-29T12:50:00.874Z,5908
2016-12-29T12:51:11.614Z,5832
2016-12-29T12:52:22.358Z,5676
2016-12-29T12:53:33.112Z,6048
2016-12-29T12:54:43.862Z,6112
2016-12-29T12:55:54.618Z,6116
2016-12-29T12:57:04.964Z,6076
2016-12-29T12:58:14.917Z,5988
2016-12-29T12:59:25.259Z,6008
2016-12-29T13:00:36.022Z,5924
2016-12-29T13:01:46.771Z,5896
2016-12-29T13:02:57.513Z,5760
2016-12-29T13:04:08.264Z,5740
2016-12-29T13:05:18.210Z,5764
2016-12-29T13:06:28.947Z,5568
2016-12-29T13:07:39.702Z,5540
2016-12-29T13:08:50.055Z,5240
2016-12-29T13:10:00.396Z,5236
2016-12-29T13:11:10.743Z,5164
2016-12-29T13:12:21.112Z,5228
2016-12-29T13:13:31.863Z,5232
2016-12-29T13:14:42.220Z,5156
2016-12-29T13:15:52.591Z,5104
2016-12-29T13:17:02.940Z,5036
2016-12-29T13:18:13.294Z,5092
2016-12-29T13:19:24.040Z,5020
2016-12-29T13:20:34.379Z,4988
2016-12-29T13:21:44.734Z,4924
2016-12-29T13:22:55.484Z,4816
2016-12-29T13:24:06.250Z,4744
2016-12-29T13:25:16.612Z,4704
2016-12-29T13:26:26.550Z,4632
2016-12-29T13:27:37.288Z,4604
2016-12-29T13:28:48.034Z,4564
2016-12-29T13:29:58.766Z,4504
2016-12-29T13:31:09.518Z,4520
2016-12-29T13:32:19.094Z,4440
2016-12-29T13:33:30.084Z,4432
2016-12-29T13:34:40.830Z,4372
2016-12-29T13:35:51.186Z,4340
2016-12-29T13:37:01.151Z,4308
2016-12-29T13:38:11.512Z,4244
2016-12-29T13:39:21.879Z,4192
2016-12-29T13:40:32.636Z,4152
2016-12-29T13:41:43.372Z,4108
2016-12-29T13:42:53.725Z,4052
2016-12-29T13:44:04.077Z,3980
2016-12-29T13:45:13.687Z,3912
2016-12-29T13:46:23.640Z,3876
2016-12-29T13:47:34.391Z,3760
2016-12-29T13:48:44.742Z,3676
2016-12-29T13:49:54.688Z,3632
2016-12-29T13:51:04.661Z,3592
2016-12-29T13:52:15.027Z,3516
2016-12-29T13:53:25.774Z,3464
2016-12-29T13:54:36.119Z,3388
2016-12-29T13:55:46.872Z,3292
2016-12-29T13:56:56.836Z,3232
2016-12-29T13:58:07.216Z,3172
2016-12-29T13:59:17.559Z,3108
2016-12-29T14:00:27.906Z,3060
2016-12-29T14:01:38.267Z,3008
2016-12-29T14:02:48.628Z,2948
2016-12-29T14:03:58.979Z,2860
2016-12-29T14:05:09.733Z,2808
2016-12-29T14:06:20.483Z,2720
2016-12-29T14:07:31.225Z,2644
2016-12-29T14:08:41.577Z,2552
2016-12-29T14:09:51.929Z,2464
2016-12-29T14:11:02.675Z,2392
2016-12-29T14:12:12.647Z,2328
2016-12-29T14:13:23.411Z,2256
2016-12-29T14:14:33.783Z,2156
2016-12-29T14:15:44.137Z,2072
2016-12-29T14:16:54.124Z,1988
2016-12-29T14:18:04.466Z,1916
2016-12-29T14:19:14.022Z,1820
2016-12-29T14:20:24.389Z,1736
2016-12-29T14:21:34.731Z,1656
2016-12-29T14:22:45.084Z,1552
2016-12-29T14:23:55.859Z,1468
2016-12-29T14:25:06.593Z,1384
2016-12-29T14:26:16.564Z,1312
2016-12-29T14:27:27.300Z,1240
2016-12-29T14:28:38.059Z,1180
2016-12-29T14:29:48.412Z,1128
2016-12-29T14:30:59.148Z,1076
2016-12-29T14:32:09.509Z,1028
2016-12-29T14:33:20.231Z,980
2016-12-29T14:34:30.577Z,944
2016-12-29T14:35:41.341Z,904
2016-12-29T14:36:52.082Z,868
2016-12-29T14:38:02.435Z,832
2016-12-29T14:39:13.198Z,792
2016-12-29T14:40:23.537Z,760
2016-12-29T14:41:33.495Z,736
2016-12-29T14:42:44.253Z,704
2016-12-29T14:43:54.611Z,680
2016-12-29T14:45:04.963Z,652
2016-12-29T14:46:14.523Z,624
2016-12-29T14:47:24.881Z,596
2016-12-29T14:48:35.626Z,572
2016-12-29T14:49:45.605Z,544
2016-12-29T14:50:56.344Z,516
2016-12-29T14:52:06.728Z,488
2016-12-29T14:53:17.083Z,460
2016-12-29T14:54:27.051Z,432
2016-12-29T14:55:37.386Z,408
2016-12-29T14:56:48.132Z,384
2016-12-29T14:57:58.491Z,356
2016-12-29T14:59:08.448Z,336
2016-12-29T15:00:18.417Z,308
2016-12-29T15:01:28.773Z,288
2016-12-29T15:02:39.511Z,264
2016-12-29T15:03:50.259Z,240
2016-12-29T15:05:00.206Z,220
2016-12-29T15:06:10.963Z,200
2016-12-29T15:07:21.309Z,184
2016-12-29T15:08:32.057Z,164
2016-12-29T15:09:41.608Z,152
2016-12-29T15:10:51.960Z,132
2016-12-29T15:12:02.313Z,120
2016-12-29T15:13:12.670Z,104
2016-12-29T15:14:23.015Z,92
2016-12-29T15:15:33.768Z,84
2016-12-29T15:16:44.509Z,72
2016-12-29T15:17:54.904Z,60
2016-12-29T15:19:05.261Z,56
2016-12-29T15:20:16.013Z,44
2016-12-29T15:21:26.363Z,40
2016-12-29T15:22:36.734Z,32
2016-12-29T15:23:46.686Z,28
2016-12-29T15:24:56.260Z,24
2016-12-29T15:26:06.648Z,20
2016-12-29T15:27:17.407Z,16
2016-12-29T15:28:27.760Z,12
2016-12-29T15:29:38.116Z,12
2016-12-29T15:30:48.500Z,8
2016-12-29T15:31:59.241Z,8
2016-12-29T15:33:09.194Z,8
2016-12-29T15:34:19.949Z,8
2016-12-29T15:35:30.696Z,4
2016-12-29T15:36:41.039Z,4
2016-12-29T15:37:50.996Z,4
2016-12-29T15:39:01.367Z,4
2016-12-29T15:40:12.107Z,4
2016-12-29T15:41:22.849Z,4
2016-12-29T15:42:33.588Z,0
2016-12-29T15:43:43.930Z,0
2016-12-29T15:44:54.675Z,4
2016-12-29T15:46:05.029Z,4
2016-12-29T15:47:15.786Z,4
2016-12-29T15:48:25.732Z,0
2016-12-29T15:49:36.480Z,0
2016-12-29T15:50:47.226Z,0
2016-12-29T15:51:57.957Z,0
2016-12-29T15:53:08.311Z,0
2016-12-29T15:54:18.664Z,0
2016-12-29T15:55:29.002Z,0
2016-12-29T15:56:39.377Z,0
2016-12-29T15:57:49.716Z,0
2016-12-29T15:59:00.446Z,0
2016-12-29T16:00:11.188Z,0
2016-12-29T16:01:21.540Z,0
2016-12-29T16:02:32.271Z,0
2016-12-29T16:03:43.009Z,0
2016-12-29T16:04:52.604Z,0
2016-12-29T16:06:02.997Z,0
2016-12-29T16:07:13.736Z,0
2016-12-29T16:08:23.695Z,0
2016-12-29T16:09:34.420Z,0
2016-12-29T16:10:45.158Z,0
2016-12-29T16:11:55.919Z,0
2016-12-29T16:13:06.263Z,0
2016-12-29T16:14:15.819Z,0
2016-12-29T16:15:26.556Z,0
2016-12-29T16:16:37.314Z,0
2016-12-29T16:17:47.666Z,0
2016-12-29T16:18:58.404Z,0
2016-12-29T16:20:08.756Z,0
2016-12-29T16:21:19.511Z,0
2016-12-29T16:22:29.457Z,0
2016-12-29T16:23:39.404Z,0
2016-12-29T16:24:50.146Z,0
2016-12-29T16:26:00.097Z,0
2016-12-29T16:27:10.844Z,0
2016-12-29T16:28:21.586Z,0
2016-12-29T16:29:32.330Z,0
2016-12-29T16:30:42.691Z,0
2016-12-29T16:31:53.037Z,0
2016-12-29T16:33:03.003Z,0
2016-12-29T16:34:13.756Z,0
2016-12-29T16:35:24.111Z,0
2016-12-29T16:36:34.468Z,0
2016-12-29T16:37:45.216Z,0
2016-12-29T16:38:55.558Z,0
2016-12-29T16:40:06.314Z,0
2016-12-29T16:41:16.672Z,0
2016-12-29T16:42:26.650Z,0
2016-12-29T16:43:37.399Z,0
2016-12-29T16:44:47.367Z,0
2016-12-29T16:45:57.731Z,0
2016-12-29T16:47:08.472Z,0
2016-12-29T16:48:19.228Z,0
2016-12-29T16:49:29.578Z,0
2016-12-29T16:50:39.930Z,0
2016-12-29T16:51:50.902Z,0
2016-12-29T16:53:01.660Z,0
2016-12-29T16:54:12.016Z,0
2016-12-29T16:55:22.394Z,0
2016-12-29T16:56:32.768Z,0